Live aus Altenrhein
LIVE
LSZR 300420Z AUTO 11002KT CAVOK 01/01 Q1014

People´s Info Center:

Öffnungszeiten Mo-Fr, 8-18 Uhr

 

info@peoples.ch

 
Aus Österreich:

T: +43 (0)5572 203 610

 

Aus CH / LI / DE:

T: +41 (0)71 858 51 60

 

11 Nebenleistungen


Wir handeln als Ihr Agent für den Fall, dass wir von der Beförderung abweichende Leistungen Dritter für Sie vermitteln oder mit Ihnen vereinbaren (Hotelreservierung, Anschlusstransport, Mietauto, etc.) Werden diese Nebenleistungen von uns selbst erbracht so haften wir nur für Vorsatz und grobe Fahrlässigkeit.